Hunnewell, Missouri
Current Conditions -  °F | °C
As of 9:54 AM on Saturday 22 Nov 2014 (Local Time) from KUIN Reporting Station
Overcast Overcast  
Wind Chill: 53°   Ceiling: 1900
Heat Index: 53°   Visibility: 10mi
Dew Point: 46°   Wind: 18mph
Humidity: 77%   Direction: 210°SSW
Pressure: 30"   Gusts: NA
Location:  39.67°N, 91.86°W
Report Text: KUIN 221554Z AUTO 21016KT 10SM BKN019 OVC029 12/08 A3000 RMK AO2 SLP160 T01170078
Loading
Personal Weather Stations






























Interactive Weather Map New forecast layout! Learn more

10-Day Weather Forecast

Advertisements
Track Severe Weather on mobile